createdAt,value
2022-09-03T00:01:34.579Z,38.90
2022-09-03T00:04:11.215Z,38.90
2022-09-03T00:06:45.182Z,38.90
2022-09-03T00:09:18.700Z,39.10
2022-09-03T00:11:55.068Z,39.10
2022-09-03T00:14:27.741Z,39.20
2022-09-03T00:17:01.835Z,39.80
2022-09-03T00:19:34.852Z,39.20
2022-09-03T00:22:11.432Z,39.40
2022-09-03T00:24:42.472Z,39.40
2022-09-03T00:27:17.458Z,39.30
2022-09-03T00:29:51.814Z,39.40
2022-09-03T00:32:23.242Z,39.50
2022-09-03T00:34:56.961Z,39.50
2022-09-03T00:37:25.123Z,39.50
2022-09-03T00:39:56.794Z,40.10
2022-09-03T00:42:40.407Z,39.50
2022-09-03T00:45:24.155Z,39.60
2022-09-03T00:48:05.324Z,39.70
2022-09-03T00:50:47.591Z,39.80
2022-09-03T00:53:28.064Z,39.80
2022-09-03T00:56:03.929Z,39.80
2022-09-03T00:58:46.482Z,39.80
2022-09-03T01:01:24.117Z,39.90
2022-09-03T01:04:01.408Z,39.80
2022-09-03T01:06:40.755Z,39.80
2022-09-03T01:09:21.585Z,39.90
2022-09-03T01:12:00.589Z,40.00
2022-09-03T01:14:41.703Z,40.00
2022-09-03T01:17:20.328Z,40.10
2022-09-03T01:20:13.895Z,40.10
2022-09-03T01:23:15.704Z,40.20
2022-09-03T01:25:54.720Z,40.30
2022-09-03T01:28:43.103Z,40.40
2022-09-03T01:31:21.282Z,40.40
2022-09-03T01:33:56.580Z,40.60
2022-09-03T01:36:32.445Z,40.60
2022-09-03T01:39:03.572Z,40.70
2022-09-03T01:42:06.378Z,40.80
2022-09-03T01:44:44.605Z,41.10
2022-09-03T01:47:21.806Z,41.10
2022-09-03T01:49:59.674Z,41.10
2022-09-03T01:52:38.188Z,41.20
2022-09-03T01:55:20.300Z,41.30
2022-09-03T01:57:51.117Z,41.40
2022-09-03T02:00:21.964Z,40.80
2022-09-03T02:02:52.217Z,41.30
2022-09-03T02:05:22.871Z,41.50
2022-09-03T02:07:56.995Z,41.60
2022-09-03T02:10:31.463Z,41.80
2022-09-03T02:13:03.054Z,41.90
2022-09-03T02:15:34.907Z,41.90
2022-09-03T02:18:05.149Z,42.00
2022-09-03T02:20:34.019Z,41.40
2022-09-03T02:23:02.407Z,41.90
2022-09-03T02:25:36.295Z,42.10
2022-09-03T02:28:06.259Z,42.30
2022-09-03T02:30:46.669Z,42.40
2022-09-03T02:33:14.966Z,42.60
2022-09-03T02:35:44.089Z,42.70
2022-09-03T02:38:13.796Z,42.70
2022-09-03T02:40:42.129Z,42.90
2022-09-03T02:43:15.104Z,42.90
2022-09-03T02:45:47.792Z,43.10
2022-09-03T02:48:21.560Z,43.10
2022-09-03T02:50:50.127Z,43.30
2022-09-03T02:53:18.740Z,43.30
2022-09-03T02:55:47.348Z,43.40
2022-09-03T02:58:15.610Z,43.40
2022-09-03T03:00:45.004Z,43.50
2022-09-03T03:03:14.522Z,43.50
2022-09-03T03:05:47.767Z,43.60
2022-09-03T03:08:17.087Z,44.20
2022-09-03T03:10:46.253Z,43.70
2022-09-03T03:13:15.052Z,43.80
2022-09-03T03:15:43.429Z,43.90
2022-09-03T03:18:12.300Z,43.90
2022-09-03T03:20:43.130Z,44.00
2022-09-03T03:23:11.621Z,44.10
2022-09-03T03:25:41.237Z,44.00
2022-09-03T03:28:10.074Z,44.10
2022-09-03T03:30:40.407Z,44.10
2022-09-03T03:33:08.967Z,44.20
2022-09-03T03:35:37.306Z,44.20
2022-09-03T03:38:06.785Z,44.30
2022-09-03T03:40:35.453Z,44.40
2022-09-03T03:43:03.597Z,44.40
2022-09-03T03:45:32.059Z,44.40
2022-09-03T03:48:00.508Z,44.40
2022-09-03T03:50:29.642Z,44.50
2022-09-03T03:53:01.775Z,44.50
2022-09-03T03:55:35.116Z,44.60
2022-09-03T03:58:03.832Z,44.50
2022-09-03T04:00:32.243Z,44.60
2022-09-03T04:03:01.022Z,44.70
2022-09-03T04:05:33.692Z,44.70
2022-09-03T04:08:04.141Z,44.70
2022-09-03T04:10:33.778Z,44.80
2022-09-03T04:13:02.238Z,45.00
2022-09-03T04:15:30.489Z,45.00
2022-09-03T04:17:58.651Z,45.10
2022-09-03T04:20:27.177Z,45.20
2022-09-03T04:22:55.322Z,45.30
2022-09-03T04:25:23.426Z,45.30
2022-09-03T04:27:54.592Z,45.20
2022-09-03T04:30:23.103Z,45.50
2022-09-03T04:32:53.590Z,45.30
2022-09-03T04:35:22.091Z,45.40
2022-09-03T04:37:50.381Z,45.60
2022-09-03T04:40:18.886Z,45.70
2022-09-03T04:42:47.132Z,45.90
2022-09-03T04:45:19.573Z,46.10
2022-09-03T04:47:57.974Z,46.30
2022-09-03T04:50:27.951Z,46.60
2022-09-03T04:52:59.172Z,46.20
2022-09-03T04:55:27.577Z,46.30
2022-09-03T04:57:55.946Z,46.30
2022-09-03T05:00:25.568Z,46.40
2022-09-03T05:02:53.816Z,46.50
2022-09-03T05:05:22.660Z,46.30
2022-09-03T05:07:50.857Z,46.30
2022-09-03T05:10:21.548Z,46.20
2022-09-03T05:12:59.039Z,46.10
2022-09-03T05:15:29.013Z,46.20
2022-09-03T05:18:01.908Z,46.20
2022-09-03T05:20:31.489Z,46.20
2022-09-03T05:23:03.186Z,46.10
2022-09-03T05:25:32.576Z,46.20
2022-09-03T05:28:01.732Z,46.10
2022-09-03T05:30:31.186Z,46.20
2022-09-03T05:32:59.412Z,46.20
2022-09-03T05:35:30.089Z,46.30
2022-09-03T05:38:00.836Z,46.30
2022-09-03T05:40:29.624Z,46.30
2022-09-03T05:42:59.875Z,46.40
2022-09-03T05:45:29.857Z,46.40
2022-09-03T05:48:01.785Z,46.40
2022-09-03T05:50:29.698Z,46.60
2022-09-03T05:52:59.655Z,45.90
2022-09-03T05:55:28.703Z,46.30
2022-09-03T05:57:56.807Z,46.40
2022-09-03T06:00:24.951Z,46.40
2022-09-03T06:02:53.667Z,46.30
2022-09-03T06:05:23.386Z,46.30
2022-09-03T06:07:52.908Z,46.40
2022-09-03T06:10:25.439Z,46.60
2022-09-03T06:12:55.234Z,46.70
2022-09-03T06:15:23.333Z,46.80
2022-09-03T06:17:51.595Z,46.60
2022-09-03T06:20:20.209Z,46.60
2022-09-03T06:22:53.565Z,46.50
2022-09-03T06:25:21.718Z,46.60
2022-09-03T06:27:50.575Z,46.50
2022-09-03T06:30:18.880Z,46.60
2022-09-03T06:32:47.324Z,46.60
2022-09-03T06:35:15.855Z,46.80
2022-09-03T06:37:44.527Z,46.80
2022-09-03T06:40:14.297Z,46.80
2022-09-03T06:42:45.766Z,46.90
2022-09-03T06:45:14.224Z,46.50
2022-09-03T06:47:42.436Z,46.40
2022-09-03T06:50:11.043Z,46.40
2022-09-03T06:52:39.174Z,46.40
2022-09-03T06:55:08.328Z,46.30
2022-09-03T06:57:37.813Z,46.20
2022-09-03T07:00:07.160Z,46.10
2022-09-03T07:02:35.250Z,46.10
2022-09-03T07:05:03.379Z,46.00
2022-09-03T07:07:32.955Z,46.00
2022-09-03T07:10:01.840Z,45.90
2022-09-03T07:12:29.991Z,45.90
2022-09-03T07:14:59.674Z,46.30
2022-09-03T07:17:28.519Z,45.60
2022-09-03T07:19:58.615Z,45.50
2022-09-03T07:22:31.344Z,45.40
2022-09-03T07:25:00.040Z,45.40
2022-09-03T07:27:28.226Z,45.30
2022-09-03T07:29:56.343Z,45.10
2022-09-03T07:32:26.007Z,45.10
2022-09-03T07:34:54.107Z,45.00
2022-09-03T07:37:22.315Z,44.90
2022-09-03T07:39:50.659Z,44.80
2022-09-03T07:42:18.941Z,44.60
2022-09-03T07:44:47.017Z,44.60
2022-09-03T07:47:15.749Z,44.50
2022-09-03T07:49:52.955Z,44.50
2022-09-03T07:52:21.311Z,44.50
2022-09-03T07:54:50.749Z,44.40
2022-09-03T07:57:18.987Z,44.30
2022-09-03T07:59:48.105Z,44.30
2022-09-03T08:02:16.484Z,44.30
2022-09-03T08:04:45.515Z,44.20
2022-09-03T08:07:15.356Z,44.10
2022-09-03T08:09:43.523Z,44.10
2022-09-03T08:12:11.679Z,44.00
2022-09-03T08:14:39.791Z,44.00
2022-09-03T08:17:08.023Z,43.90
2022-09-03T08:19:36.337Z,43.90
2022-09-03T08:22:04.510Z,43.90
2022-09-03T08:24:34.387Z,43.80
2022-09-03T08:27:02.791Z,43.70
2022-09-03T08:29:30.910Z,43.70
2022-09-03T08:31:59.693Z,43.70
2022-09-03T08:34:28.157Z,43.60
2022-09-03T08:36:56.351Z,43.60
2022-09-03T08:39:24.826Z,43.50
2022-09-03T08:42:20.038Z,43.40
2022-09-03T08:44:51.297Z,43.40
2022-09-03T08:47:23.501Z,43.20
2022-09-03T08:49:56.359Z,43.20
2022-09-03T08:52:32.559Z,43.10
2022-09-03T08:55:14.175Z,43.10
2022-09-03T08:57:47.030Z,42.90
2022-09-03T09:00:16.161Z,43.00
2022-09-03T09:02:57.262Z,43.00
2022-09-03T09:05:35.175Z,43.00
2022-09-03T09:08:09.973Z,43.00
2022-09-03T09:10:45.587Z,43.00
2022-09-03T09:13:25.370Z,43.00
2022-09-03T09:16:03.401Z,43.00
2022-09-03T09:18:44.061Z,43.10
2022-09-03T09:21:21.411Z,43.30
2022-09-03T09:23:52.170Z,43.40
2022-09-03T09:26:22.576Z,43.40
2022-09-03T09:28:59.171Z,43.50
2022-09-03T09:31:31.010Z,43.50
2022-09-03T09:34:07.036Z,43.50
2022-09-03T09:36:49.455Z,43.50
2022-09-03T09:39:17.916Z,43.40
2022-09-03T09:41:59.049Z,43.20
2022-09-03T09:44:28.625Z,43.30
2022-09-03T09:47:09.801Z,43.30
2022-09-03T09:49:44.649Z,43.40
2022-09-03T09:52:14.364Z,43.30
2022-09-03T09:54:44.313Z,43.30
2022-09-03T09:57:18.676Z,43.40
2022-09-03T09:59:49.456Z,43.40
2022-09-03T10:02:27.885Z,43.40
2022-09-03T10:05:02.012Z,43.60
2022-09-03T10:07:33.141Z,43.50
2022-09-03T10:10:03.379Z,43.40
2022-09-03T10:12:36.583Z,43.40
2022-09-03T10:15:24.568Z,43.60
2022-09-03T10:17:59.430Z,43.60
2022-09-03T10:20:34.206Z,43.40
2022-09-03T10:23:08.944Z,43.30
2022-09-03T10:25:41.828Z,43.20
2022-09-03T10:28:23.522Z,43.20
2022-09-03T10:31:13.521Z,43.10
2022-09-03T10:33:49.703Z,43.00
2022-09-03T10:36:22.291Z,43.00
2022-09-03T10:38:54.933Z,43.10
2022-09-03T10:41:41.502Z,43.10
2022-09-03T10:44:40.176Z,43.10
2022-09-03T10:47:23.560Z,43.10
2022-09-03T10:50:01.758Z,43.00
2022-09-03T10:52:39.234Z,43.00
2022-09-03T10:55:17.850Z,42.90
2022-09-03T10:57:54.269Z,42.90
2022-09-03T11:00:22.620Z,42.90
2022-09-03T11:03:28.919Z,42.90
2022-09-03T11:06:04.192Z,42.90
2022-09-03T11:08:37.701Z,42.90
2022-09-03T11:11:15.304Z,43.00
2022-09-03T11:13:48.466Z,43.10
2022-09-03T11:16:20.178Z,43.20
2022-09-03T11:18:52.691Z,43.80
2022-09-03T11:21:24.839Z,43.30
2022-09-03T11:24:05.509Z,44.00
2022-09-03T11:26:35.259Z,43.50
2022-09-03T11:29:08.230Z,43.60
2022-09-03T11:31:48.118Z,43.70
2022-09-03T11:34:31.933Z,43.70
2022-09-03T11:37:16.767Z,43.60
2022-09-03T11:39:45.019Z,43.50
2022-09-03T11:42:27.507Z,43.50
2022-09-03T11:45:02.861Z,43.60
2022-09-03T11:47:41.259Z,43.50
2022-09-03T11:50:21.421Z,43.50
2022-09-03T11:52:52.014Z,43.40
2022-09-03T11:55:32.671Z,43.40
2022-09-03T11:58:14.311Z,43.20
2022-09-03T12:00:45.264Z,43.10
2022-09-03T12:03:18.097Z,43.00
2022-09-03T12:05:58.820Z,43.00
2022-09-03T12:08:54.331Z,42.90
2022-09-03T12:11:36.111Z,42.80
2022-09-03T12:14:11.611Z,42.60
2022-09-03T12:17:04.976Z,42.60
2022-09-03T12:19:39.211Z,42.30
2022-09-03T12:22:15.120Z,42.20
2022-09-03T12:24:45.096Z,42.20
2022-09-03T12:27:21.166Z,42.00
2022-09-03T12:29:59.912Z,41.80
2022-09-03T12:32:32.200Z,41.60
2022-09-03T12:35:11.804Z,41.60
2022-09-03T12:40:33.718Z,41.20
2022-09-03T12:46:11.215Z,41.00
2022-09-03T12:48:43.561Z,41.00
2022-09-03T12:54:03.114Z,40.90
2022-09-03T12:56:35.523Z,40.90
2022-09-03T12:59:08.322Z,40.80
2022-09-03T13:01:41.840Z,40.70
2022-09-03T13:04:15.409Z,40.80
2022-09-03T13:06:51.808Z,40.60
2022-09-03T13:09:26.429Z,40.50
2022-09-03T13:11:55.609Z,40.50
2022-09-03T13:14:24.050Z,40.50
2022-09-03T13:17:17.506Z,40.50
2022-09-03T13:20:23.157Z,40.30
2022-09-03T13:23:08.055Z,40.10
2022-09-03T13:25:44.071Z,40.00
2022-09-03T13:28:27.852Z,40.00
2022-09-03T13:31:01.543Z,40.00
2022-09-03T13:33:36.357Z,40.00
2022-09-03T13:36:10.898Z,40.00
2022-09-03T13:38:44.921Z,40.10
2022-09-03T13:41:20.813Z,40.00
2022-09-03T13:43:56.376Z,40.10
2022-09-03T13:46:31.483Z,40.10
2022-09-03T13:49:23.602Z,40.00
2022-09-03T13:51:54.745Z,40.30
2022-09-03T13:54:48.285Z,40.40
2022-09-03T13:57:28.933Z,40.50
2022-09-03T14:00:03.136Z,40.50
2022-09-03T14:02:42.685Z,40.70
2022-09-03T14:05:15.767Z,40.70
2022-09-03T14:07:55.464Z,40.70
2022-09-03T14:10:28.865Z,40.60
2022-09-03T14:13:10.126Z,40.60
2022-09-03T14:15:45.837Z,40.60
2022-09-03T14:18:23.629Z,40.70
2022-09-03T14:20:59.230Z,40.70
2022-09-03T14:23:35.986Z,40.70
2022-09-03T14:26:07.205Z,40.70
2022-09-03T14:28:37.926Z,40.60
2022-09-03T14:31:18.390Z,40.60
2022-09-03T14:33:54.523Z,40.40
2022-09-03T14:36:30.239Z,40.30
2022-09-03T14:39:27.708Z,40.20
2022-09-03T14:42:21.174Z,40.20
2022-09-03T14:45:24.657Z,40.30
2022-09-03T14:48:11.150Z,40.20
2022-09-03T14:50:52.409Z,40.20
2022-09-03T14:53:37.165Z,40.10
2022-09-03T14:56:18.898Z,40.20
2022-09-03T14:59:00.922Z,40.10
2022-09-03T15:01:35.679Z,40.30
2022-09-03T15:04:46.558Z,40.20
2022-09-03T15:07:34.041Z,40.10
2022-09-03T15:10:13.911Z,40.00
2022-09-03T15:12:46.500Z,40.00
2022-09-03T15:15:20.090Z,40.00
2022-09-03T15:17:58.667Z,40.00
2022-09-03T15:20:37.579Z,39.90
2022-09-03T15:23:20.941Z,40.20
2022-09-03T15:26:17.600Z,40.30
2022-09-03T15:29:04.842Z,40.20
2022-09-03T15:31:46.856Z,40.20
2022-09-03T15:34:33.618Z,40.30
2022-09-03T15:37:10.015Z,40.30
2022-09-03T15:39:44.518Z,40.40
2022-09-03T15:42:23.728Z,40.50
2022-09-03T15:44:55.354Z,40.60
2022-09-03T15:47:40.067Z,40.70
2022-09-03T15:50:30.819Z,40.60
2022-09-03T15:53:07.949Z,40.90
2022-09-03T15:55:40.202Z,41.00
2022-09-03T15:58:20.833Z,41.00
2022-09-03T16:01:00.066Z,41.10
2022-09-03T16:03:45.513Z,41.20
2022-09-03T16:06:37.489Z,41.20
2022-09-03T16:09:19.026Z,41.20
2022-09-03T16:11:57.960Z,41.20
2022-09-03T16:14:32.227Z,41.20
2022-09-03T16:17:08.451Z,41.20
2022-09-03T16:19:43.163Z,41.20
2022-09-03T16:22:23.540Z,41.10
2022-09-03T16:25:00.179Z,41.20
2022-09-03T16:27:33.748Z,41.10
2022-09-03T16:30:08.970Z,41.20
2022-09-03T16:33:03.025Z,41.20
2022-09-03T16:35:44.643Z,41.20
2022-09-03T16:38:23.641Z,41.20
2022-09-03T16:40:56.893Z,41.00
2022-09-03T16:43:41.390Z,41.10
2022-09-03T16:46:24.349Z,41.20
2022-09-03T16:49:03.322Z,41.40
2022-09-03T16:51:41.069Z,41.50
2022-09-03T16:54:32.404Z,41.60
2022-09-03T16:57:08.534Z,41.70
2022-09-03T17:00:03.279Z,41.80
2022-09-03T17:03:06.539Z,41.80
2022-09-03T17:05:48.137Z,41.80
2022-09-03T17:08:26.434Z,41.80
2022-09-03T17:11:08.568Z,41.90
2022-09-03T17:13:52.211Z,41.90
2022-09-03T17:16:30.223Z,41.90
2022-09-03T17:19:07.826Z,41.90
2022-09-03T17:21:46.955Z,41.90
2022-09-03T17:24:33.511Z,41.90
2022-09-03T17:27:42.548Z,42.50
2022-09-03T17:30:17.713Z,42.00
2022-09-03T17:33:31.327Z,41.90
2022-09-03T17:36:08.970Z,41.90
2022-09-03T17:39:03.710Z,42.70
2022-09-03T17:41:42.014Z,42.20
2022-09-03T17:44:20.922Z,42.10
2022-09-03T17:46:59.875Z,42.20
2022-09-03T17:49:31.498Z,42.20
2022-09-03T17:52:01.876Z,42.30
2022-09-03T17:54:39.717Z,42.00
2022-09-03T17:57:19.095Z,42.20
2022-09-03T17:59:54.194Z,42.30
2022-09-03T18:02:31.090Z,42.30
2022-09-03T18:05:04.278Z,42.40
2022-09-03T18:07:40.531Z,42.50
2022-09-03T18:10:19.050Z,42.30
2022-09-03T18:13:03.592Z,42.30
2022-09-03T18:15:38.810Z,42.30
2022-09-03T18:18:11.618Z,42.90
2022-09-03T18:21:22.249Z,41.90
2022-09-03T18:24:11.890Z,41.80
2022-09-03T18:27:02.594Z,41.80
2022-09-03T18:29:55.074Z,41.40
2022-09-03T18:32:42.034Z,41.40
2022-09-03T18:35:28.400Z,41.30
2022-09-03T18:38:14.608Z,41.30
2022-09-03T18:41:11.482Z,41.40
2022-09-03T18:44:06.879Z,41.40
2022-09-03T18:50:22.301Z,41.50
2022-09-03T18:53:14.817Z,41.50
2022-09-03T18:56:12.184Z,41.60
2022-09-03T18:59:09.264Z,41.60
2022-09-03T19:01:57.531Z,41.70
2022-09-03T19:04:53.603Z,41.80
2022-09-03T19:07:50.697Z,41.90
2022-09-03T19:10:43.812Z,42.10
2022-09-03T19:13:44.222Z,42.10
2022-09-03T19:16:37.470Z,42.30
2022-09-03T19:19:44.280Z,42.30
2022-09-03T19:22:31.496Z,42.40
2022-09-03T19:25:21.695Z,42.40
2022-09-03T19:28:21.651Z,42.50
2022-09-03T19:31:18.313Z,42.60
2022-09-03T19:34:10.633Z,42.70
2022-09-03T19:37:02.945Z,42.80
2022-09-03T19:40:04.470Z,43.00
2022-09-03T19:43:05.207Z,43.10
2022-09-03T19:46:00.131Z,43.10
2022-09-03T19:48:54.912Z,43.10
2022-09-03T19:51:48.176Z,43.20
2022-09-03T19:54:38.916Z,43.20
2022-09-03T19:57:25.304Z,43.20
2022-09-03T20:00:12.111Z,43.30
2022-09-03T20:02:59.571Z,43.40
2022-09-03T20:05:46.001Z,43.40
2022-09-03T20:08:35.240Z,43.60
2022-09-03T20:11:05.467Z,43.80
2022-09-03T20:13:55.582Z,43.90
2022-09-03T20:16:31.070Z,44.00
2022-09-03T20:19:05.796Z,44.10
2022-09-03T20:21:40.758Z,44.40
2022-09-03T20:24:24.934Z,44.50
2022-09-03T20:27:01.517Z,44.60
2022-09-03T20:29:49.451Z,44.70
2022-09-03T20:32:52.356Z,44.70
2022-09-03T20:35:31.879Z,45.00
2022-09-03T20:38:10.345Z,45.00
2022-09-03T20:40:47.550Z,45.10
2022-09-03T20:43:47.533Z,45.30
2022-09-03T20:46:28.721Z,45.50
2022-09-03T20:49:07.745Z,45.50
2022-09-03T20:51:42.826Z,45.50
2022-09-03T20:54:17.065Z,45.50
2022-09-03T20:56:59.298Z,45.60
2022-09-03T20:59:39.998Z,45.80
2022-09-03T21:02:18.681Z,45.70
2022-09-03T21:05:00.409Z,45.70
2022-09-03T21:07:39.957Z,45.80
2022-09-03T21:10:16.951Z,45.90
2022-09-03T21:12:53.106Z,45.90
2022-09-03T21:15:29.634Z,45.90
2022-09-03T21:18:07.542Z,46.00
2022-09-03T21:20:45.551Z,46.20
2022-09-03T21:23:20.599Z,46.30
2022-09-03T21:25:55.230Z,46.40
2022-09-03T21:28:28.560Z,46.50
2022-09-03T21:31:01.357Z,46.60
2022-09-03T21:33:32.813Z,46.70
2022-09-03T21:36:08.315Z,46.70
2022-09-03T21:38:39.375Z,46.80
2022-09-03T21:41:18.386Z,46.70
2022-09-03T21:43:51.763Z,46.90
2022-09-03T21:46:24.921Z,46.80
2022-09-03T21:48:57.653Z,46.90
2022-09-03T21:51:34.243Z,47.00
2022-09-03T21:54:06.581Z,47.10
2022-09-03T21:57:03.811Z,47.00
2022-09-03T22:00:07.807Z,47.20
2022-09-03T22:02:36.444Z,47.20
2022-09-03T22:05:06.579Z,47.10
2022-09-03T22:07:53.568Z,47.10
2022-09-03T22:10:27.781Z,47.30
2022-09-03T22:13:04.587Z,47.30
2022-09-03T22:15:35.448Z,47.40
2022-09-03T22:18:15.420Z,47.30
2022-09-03T22:20:49.739Z,47.50
2022-09-03T22:23:24.837Z,47.50
2022-09-03T22:26:01.340Z,47.70
2022-09-03T22:28:38.282Z,47.80
2022-09-03T22:31:15.583Z,48.00
2022-09-03T22:33:48.586Z,48.10
2022-09-03T22:36:19.523Z,48.30
2022-09-03T22:39:11.739Z,48.40
2022-09-03T22:42:00.855Z,48.70
2022-09-03T22:44:49.215Z,48.80
2022-09-03T22:47:29.955Z,49.10
2022-09-03T22:50:09.676Z,49.00
2022-09-03T22:52:43.167Z,49.10
2022-09-03T22:55:18.423Z,49.50
2022-09-03T22:57:55.951Z,49.50
2022-09-03T23:00:24.270Z,49.50
2022-09-03T23:03:00.706Z,49.40
2022-09-03T23:05:37.731Z,49.50
2022-09-03T23:08:11.022Z,49.60
2022-09-03T23:10:55.191Z,49.60
2022-09-03T23:13:26.685Z,49.80
2022-09-03T23:16:02.128Z,49.60
2022-09-03T23:18:33.556Z,49.90
2022-09-03T23:21:07.853Z,49.80
2022-09-03T23:23:39.866Z,50.00
2022-09-03T23:26:23.452Z,50.10
2022-09-03T23:28:58.506Z,50.50
2022-09-03T23:31:28.844Z,50.70
2022-09-03T23:33:57.361Z,50.50
2022-09-03T23:39:51.708Z,50.60
2022-09-03T23:42:28.102Z,50.30
2022-09-03T23:45:15.362Z,50.20
2022-09-03T23:47:50.903Z,50.70
2022-09-03T23:50:33.103Z,50.70
2022-09-03T23:53:28.758Z,50.90
2022-09-03T23:56:19.966Z,50.90
2022-09-03T23:59:01.466Z,51.10
